Ana Sayfa
METAR-TAF:

METAR-TAF

Havaalanları :

Salem-Leckrone Airport

Salem, Illinois, Amerika Birleşik Devletleri

Enlem: 38-38-34N, Boylam: 088-57-51W, yükseklik: 175 m

Güncel hava durumu gözlemi

Rapor saat 12:35 UTC de 24 dakika önce yapıldı.
Rüzgar doğu/kuzeydoğudan 3 kt
Sıcaklık 18°C
Nem 83%
Basınç 1014 hPa
Görüş mesafesi: 16.1 km
12000 ft yükseklikte parçalı bulutlu

METAR: KSLO 231235Z AUTO 07003KT 10SM SCT120 18/15 A2993 RMK AO2 LTG DSNT E T01780150

Saat: 07:59 (12:59 UTC)


TAF: eksik

4.000'den fazla havaalanı için hava durumu gözlemleri ve tahminleri (METAR ve TAF raporları).

Kullanılabilir istasyonlar harita üzerinde sarı ve kırmızı noktalarla gösterilir.

İstasyonun adını görmek için fareyi noktanın üzerinde gezdirin.

Sonrasında hava gözlem ve tahminlerini görmek için tıklayın.

Haritayı değiştirmek için: yaklaştırmak için siyah artı işaretli yeşil düğmeye ve uzaklaştırmak için de eksi işaretli düğmeye hızla tıklayın; bitişik haritalar için yeşil okları kullanın.


METAR-TAF: